sensor_id;sensor_type;location;lat;lon;timestamp;P1;durP1;ratioP1;P2;durP2;ratioP2
48993;SDS011;34804;49.214;12.276;2023-11-19T00:01:43;6.75;;;3.80;;
48993;SDS011;34804;49.214;12.276;2023-11-19T00:04:10;6.50;;;3.60;;
48993;SDS011;34804;49.214;12.276;2023-11-19T00:06:37;6.95;;;4.03;;
48993;SDS011;34804;49.214;12.276;2023-11-19T00:09:04;6.78;;;3.42;;
48993;SDS011;34804;49.214;12.276;2023-11-19T00:11:31;6.78;;;3.90;;
48993;SDS011;34804;49.214;12.276;2023-11-19T00:13:58;6.55;;;3.45;;
48993;SDS011;34804;49.214;12.276;2023-11-19T00:16:25;8.40;;;3.58;;
48993;SDS011;34804;49.214;12.276;2023-11-19T00:18:52;8.05;;;3.53;;
48993;SDS011;34804;49.214;12.276;2023-11-19T00:21:19;6.22;;;3.13;;
48993;SDS011;34804;49.214;12.276;2023-11-19T00:23:46;6.93;;;3.15;;
48993;SDS011;34804;49.214;12.276;2023-11-19T00:26:13;6.43;;;3.28;;
48993;SDS011;34804;49.214;12.276;2023-11-19T00:28:40;5.85;;;3.28;;
48993;SDS011;34804;49.214;12.276;2023-11-19T00:31:06;5.70;;;2.67;;
48993;SDS011;34804;49.214;12.276;2023-11-19T00:33:33;6.20;;;3.30;;
48993;SDS011;34804;49.214;12.276;2023-11-19T00:36:00;5.85;;;2.90;;
48993;SDS011;34804;49.214;12.276;2023-11-19T00:38:27;7.05;;;3.00;;
48993;SDS011;34804;49.214;12.276;2023-11-19T00:40:54;6.15;;;2.97;;
48993;SDS011;34804;49.214;12.276;2023-11-19T00:43:21;6.07;;;3.35;;
48993;SDS011;34804;49.214;12.276;2023-11-19T00:45:48;6.45;;;3.38;;
48993;SDS011;34804;49.214;12.276;2023-11-19T00:48:17;4.72;;;2.53;;
48993;SDS011;34804;49.214;12.276;2023-11-19T00:50:44;5.75;;;3.00;;
48993;SDS011;34804;49.214;12.276;2023-11-19T00:53:12;5.85;;;2.88;;
48993;SDS011;34804;49.214;12.276;2023-11-19T00:55:38;6.28;;;3.10;;
48993;SDS011;34804;49.214;12.276;2023-11-19T00:58:08;6.18;;;3.60;;
48993;SDS011;34804;49.214;12.276;2023-11-19T01:00:35;4.93;;;3.00;;
48993;SDS011;34804;49.214;12.276;2023-11-19T01:03:02;5.97;;;3.40;;
48993;SDS011;34804;49.214;12.276;2023-11-19T01:05:29;6.38;;;3.30;;
48993;SDS011;34804;49.214;12.276;2023-11-19T01:07:56;5.63;;;3.03;;
48993;SDS011;34804;49.214;12.276;2023-11-19T01:10:22;7.75;;;3.60;;
48993;SDS011;34804;49.214;12.276;2023-11-19T01:12:50;6.60;;;3.58;;
48993;SDS011;34804;49.214;12.276;2023-11-19T01:15:18;6.50;;;3.78;;
48993;SDS011;34804;49.214;12.276;2023-11-19T01:17:45;7.05;;;3.90;;
48993;SDS011;34804;49.214;12.276;2023-11-19T01:20:15;6.85;;;3.80;;
48993;SDS011;34804;49.214;12.276;2023-11-19T01:22:42;6.25;;;3.65;;
48993;SDS011;34804;49.214;12.276;2023-11-19T01:25:09;9.27;;;4.20;;
48993;SDS011;34804;49.214;12.276;2023-11-19T01:27:36;7.60;;;3.92;;
48993;SDS011;34804;49.214;12.276;2023-11-19T01:30:03;7.25;;;3.65;;
48993;SDS011;34804;49.214;12.276;2023-11-19T01:32:32;6.28;;;3.63;;
48993;SDS011;34804;49.214;12.276;2023-11-19T01:34:58;7.07;;;3.35;;
48993;SDS011;34804;49.214;12.276;2023-11-19T01:37:25;5.97;;;3.47;;
48993;SDS011;34804;49.214;12.276;2023-11-19T01:39:52;6.38;;;3.42;;
48993;SDS011;34804;49.214;12.276;2023-11-19T01:42:22;6.68;;;3.55;;
48993;SDS011;34804;49.214;12.276;2023-11-19T01:44:55;5.60;;;3.00;;
48993;SDS011;34804;49.214;12.276;2023-11-19T01:47:28;6.40;;;3.05;;
48993;SDS011;34804;49.214;12.276;2023-11-19T01:49:56;6.05;;;3.13;;
48993;SDS011;34804;49.214;12.276;2023-11-19T01:52:25;6.00;;;3.08;;
48993;SDS011;34804;49.214;12.276;2023-11-19T01:54:52;4.75;;;2.50;;
48993;SDS011;34804;49.214;12.276;2023-11-19T01:57:21;6.32;;;3.00;;
48993;SDS011;34804;49.214;12.276;2023-11-19T01:59:50;5.47;;;2.88;;
48993;SDS011;34804;49.214;12.276;2023-11-19T02:02:18;6.18;;;2.50;;
48993;SDS011;34804;49.214;12.276;2023-11-19T02:04:49;4.68;;;2.53;;
48993;SDS011;34804;49.214;12.276;2023-11-19T02:07:17;5.78;;;2.55;;
48993;SDS011;34804;49.214;12.276;2023-11-19T02:09:44;5.32;;;2.67;;
48993;SDS011;34804;49.214;12.276;2023-11-19T02:12:11;5.68;;;2.22;;
48993;SDS011;34804;49.214;12.276;2023-11-19T02:14:38;4.43;;;2.25;;
48993;SDS011;34804;49.214;12.276;2023-11-19T02:17:05;4.85;;;2.38;;
48993;SDS011;34804;49.214;12.276;2023-11-19T02:19:31;4.70;;;2.10;;
48993;SDS011;34804;49.214;12.276;2023-11-19T02:21:58;4.68;;;2.35;;
48993;SDS011;34804;49.214;12.276;2023-11-19T02:24:27;7.22;;;2.40;;
48993;SDS011;34804;49.214;12.276;2023-11-19T02:26:59;5.75;;;2.55;;
48993;SDS011;34804;49.214;12.276;2023-11-19T02:29:32;5.13;;;2.17;;
48993;SDS011;34804;49.214;12.276;2023-11-19T02:32:01;4.53;;;2.17;;
48993;SDS011;34804;49.214;12.276;2023-11-19T02:34:28;3.75;;;1.77;;
48993;SDS011;34804;49.214;12.276;2023-11-19T02:36:55;3.78;;;1.58;;
48993;SDS011;34804;49.214;12.276;2023-11-19T02:39:22;3.50;;;1.60;;
48993;SDS011;34804;49.214;12.276;2023-11-19T02:41:49;3.70;;;1.60;;
48993;SDS011;34804;49.214;12.276;2023-11-19T02:44:19;3.10;;;1.40;;
48993;SDS011;34804;49.214;12.276;2023-11-19T02:46:45;2.38;;;1.23;;
48993;SDS011;34804;49.214;12.276;2023-11-19T02:49:14;3.30;;;1.60;;
48993;SDS011;34804;49.214;12.276;2023-11-19T02:51:42;2.47;;;1.30;;
48993;SDS011;34804;49.214;12.276;2023-11-19T02:54:09;3.38;;;1.30;;
48993;SDS011;34804;49.214;12.276;2023-11-19T02:56:36;2.63;;;1.10;;
48993;SDS011;34804;49.214;12.276;2023-11-19T02:59:05;3.33;;;1.20;;
48993;SDS011;34804;49.214;12.276;2023-11-19T03:01:41;1.77;;;1.00;;
48993;SDS011;34804;49.214;12.276;2023-11-19T03:04:10;2.13;;;1.10;;
48993;SDS011;34804;49.214;12.276;2023-11-19T03:06:38;2.08;;;1.00;;
48993;SDS011;34804;49.214;12.276;2023-11-19T03:09:05;2.25;;;0.90;;
48993;SDS011;34804;49.214;12.276;2023-11-19T03:11:34;2.90;;;1.20;;
48993;SDS011;34804;49.214;12.276;2023-11-19T03:14:01;1.75;;;0.77;;
48993;SDS011;34804;49.214;12.276;2023-11-19T03:16:29;2.25;;;1.08;;
48993;SDS011;34804;49.214;12.276;2023-11-19T03:18:56;2.47;;;1.10;;
48993;SDS011;34804;49.214;12.276;2023-11-19T03:21:29;2.40;;;1.08;;
48993;SDS011;34804;49.214;12.276;2023-11-19T03:23:57;2.35;;;1.10;;
48993;SDS011;34804;49.214;12.276;2023-11-19T03:26:27;2.25;;;1.08;;
48993;SDS011;34804;49.214;12.276;2023-11-19T03:28:54;2.65;;;1.20;;
48993;SDS011;34804;49.214;12.276;2023-11-19T03:31:23;2.85;;;1.25;;
48993;SDS011;34804;49.214;12.276;2023-11-19T03:33:51;2.95;;;1.20;;
48993;SDS011;34804;49.214;12.276;2023-11-19T03:36:18;4.00;;;1.23;;
48993;SDS011;34804;49.214;12.276;2023-11-19T03:38:45;2.78;;;1.10;;
48993;SDS011;34804;49.214;12.276;2023-11-19T03:41:13;3.38;;;1.52;;
48993;SDS011;34804;49.214;12.276;2023-11-19T03:43:40;3.30;;;1.17;;
48993;SDS011;34804;49.214;12.276;2023-11-19T03:46:20;2.58;;;1.20;;
48993;SDS011;34804;49.214;12.276;2023-11-19T03:48:50;2.35;;;1.10;;
48993;SDS011;34804;49.214;12.276;2023-11-19T03:51:17;2.47;;;1.10;;
48993;SDS011;34804;49.214;12.276;2023-11-19T03:53:47;2.25;;;1.13;;
48993;SDS011;34804;49.214;12.276;2023-11-19T03:56:13;1.95;;;0.95;;
48993;SDS011;34804;49.214;12.276;2023-11-19T03:58:40;2.85;;;1.10;;
48993;SDS011;34804;49.214;12.276;2023-11-19T04:01:11;2.88;;;1.20;;
48993;SDS011;34804;49.214;12.276;2023-11-19T04:03:42;5.07;;;1.20;;
48993;SDS011;34804;49.214;12.276;2023-11-19T04:06:11;2.45;;;1.20;;
48993;SDS011;34804;49.214;12.276;2023-11-19T04:08:38;2.95;;;1.20;;
48993;SDS011;34804;49.214;12.276;2023-11-19T04:11:05;2.35;;;1.17;;
48993;SDS011;34804;49.214;12.276;2023-11-19T04:13:32;2.50;;;1.10;;
48993;SDS011;34804;49.214;12.276;2023-11-19T04:15:59;2.53;;;1.30;;
48993;SDS011;34804;49.214;12.276;2023-11-19T04:18:26;2.28;;;1.02;;
48993;SDS011;34804;49.214;12.276;2023-11-19T04:20:53;2.65;;;1.05;;
48993;SDS011;34804;49.214;12.276;2023-11-19T04:23:20;3.35;;;1.20;;
48993;SDS011;34804;49.214;12.276;2023-11-19T04:25:47;2.63;;;1.35;;
48993;SDS011;34804;49.214;12.276;2023-11-19T04:28:13;2.83;;;1.30;;
48993;SDS011;34804;49.214;12.276;2023-11-19T04:30:41;2.38;;;1.00;;
48993;SDS011;34804;49.214;12.276;2023-11-19T04:33:08;2.53;;;1.20;;
48993;SDS011;34804;49.214;12.276;2023-11-19T04:35:34;2.58;;;1.20;;
48993;SDS011;34804;49.214;12.276;2023-11-19T04:38:01;1.92;;;0.95;;
48993;SDS011;34804;49.214;12.276;2023-11-19T04:40:28;2.50;;;1.02;;
48993;SDS011;34804;49.214;12.276;2023-11-19T04:42:55;1.65;;;0.90;;
48993;SDS011;34804;49.214;12.276;2023-11-19T04:45:22;2.30;;;1.00;;
48993;SDS011;34804;49.214;12.276;2023-11-19T04:47:52;2.00;;;1.00;;
48993;SDS011;34804;49.214;12.276;2023-11-19T04:50:18;1.90;;;0.82;;
48993;SDS011;34804;49.214;12.276;2023-11-19T04:52:45;2.28;;;0.90;;
48993;SDS011;34804;49.214;12.276;2023-11-19T04:55:12;1.83;;;0.93;;
48993;SDS011;34804;49.214;12.276;2023-11-19T04:57:40;1.65;;;0.80;;
48993;SDS011;34804;49.214;12.276;2023-11-19T05:00:07;2.00;;;0.88;;
48993;SDS011;34804;49.214;12.276;2023-11-19T05:02:37;1.50;;;0.80;;
48993;SDS011;34804;49.214;12.276;2023-11-19T05:05:04;2.53;;;0.80;;
48993;SDS011;34804;49.214;12.276;2023-11-19T05:07:32;1.10;;;0.65;;
48993;SDS011;34804;49.214;12.276;2023-11-19T05:09:59;1.23;;;0.77;;
48993;SDS011;34804;49.214;12.276;2023-11-19T05:12:26;1.45;;;0.80;;
48993;SDS011;34804;49.214;12.276;2023-11-19T05:14:53;1.70;;;0.90;;
48993;SDS011;34804;49.214;12.276;2023-11-19T05:17:20;2.15;;;0.90;;
48993;SDS011;34804;49.214;12.276;2023-11-19T05:19:47;2.65;;;1.10;;
48993;SDS011;34804;49.214;12.276;2023-11-19T05:22:15;1.30;;;0.80;;
48993;SDS011;34804;49.214;12.276;2023-11-19T05:24:41;2.13;;;0.98;;
48993;SDS011;34804;49.214;12.276;2023-11-19T05:27:08;1.60;;;0.90;;
48993;SDS011;34804;49.214;12.276;2023-11-19T05:29:37;2.55;;;1.10;;
48993;SDS011;34804;49.214;12.276;2023-11-19T05:32:05;1.63;;;0.98;;
48993;SDS011;34804;49.214;12.276;2023-11-19T05:34:33;2.72;;;1.30;;
48993;SDS011;34804;49.214;12.276;2023-11-19T05:37:00;3.03;;;1.38;;
48993;SDS011;34804;49.214;12.276;2023-11-19T05:39:27;3.17;;;1.30;;
48993;SDS011;34804;49.214;12.276;2023-11-19T05:41:54;3.10;;;1.45;;
48993;SDS011;34804;49.214;12.276;2023-11-19T05:44:21;3.72;;;1.50;;
48993;SDS011;34804;49.214;12.276;2023-11-19T05:46:48;3.00;;;1.30;;
48993;SDS011;34804;49.214;12.276;2023-11-19T05:49:15;3.17;;;1.45;;
48993;SDS011;34804;49.214;12.276;2023-11-19T05:51:42;3.50;;;1.80;;
48993;SDS011;34804;49.214;12.276;2023-11-19T05:54:09;3.58;;;1.83;;
48993;SDS011;34804;49.214;12.276;2023-11-19T05:56:37;4.57;;;2.30;;
48993;SDS011;34804;49.214;12.276;2023-11-19T05:59:04;3.65;;;1.88;;
48993;SDS011;34804;49.214;12.276;2023-11-19T06:01:34;3.92;;;2.15;;
48993;SDS011;34804;49.214;12.276;2023-11-19T06:04:01;4.20;;;2.20;;
48993;SDS011;34804;49.214;12.276;2023-11-19T06:06:28;4.75;;;2.13;;
48993;SDS011;34804;49.214;12.276;2023-11-19T06:08:55;5.95;;;2.70;;
48993;SDS011;34804;49.214;12.276;2023-11-19T06:11:22;4.70;;;2.47;;
48993;SDS011;34804;49.214;12.276;2023-11-19T06:13:49;4.60;;;2.60;;
48993;SDS011;34804;49.214;12.276;2023-11-19T06:16:17;5.03;;;2.88;;
48993;SDS011;34804;49.214;12.276;2023-11-19T06:18:45;5.97;;;3.08;;
48993;SDS011;34804;49.214;12.276;2023-11-19T06:21:12;5.47;;;3.00;;
48993;SDS011;34804;49.214;12.276;2023-11-19T06:23:39;6.00;;;3.47;;
48993;SDS011;34804;49.214;12.276;2023-11-19T06:26:06;6.32;;;3.58;;
48993;SDS011;34804;49.214;12.276;2023-11-19T06:28:33;6.60;;;3.80;;
48993;SDS011;34804;49.214;12.276;2023-11-19T06:31:00;5.97;;;3.63;;
48993;SDS011;34804;49.214;12.276;2023-11-19T06:33:27;7.05;;;3.80;;
48993;SDS011;34804;49.214;12.276;2023-11-19T06:35:54;6.93;;;4.07;;
48993;SDS011;34804;49.214;12.276;2023-11-19T06:38:21;6.88;;;3.95;;
48993;SDS011;34804;49.214;12.276;2023-11-19T06:40:48;5.50;;;3.33;;
48993;SDS011;34804;49.214;12.276;2023-11-19T06:43:20;6.43;;;3.85;;
48993;SDS011;34804;49.214;12.276;2023-11-19T06:45:47;7.70;;;4.60;;
48993;SDS011;34804;49.214;12.276;2023-11-19T06:48:14;8.48;;;4.75;;
48993;SDS011;34804;49.214;12.276;2023-11-19T06:50:41;9.50;;;5.72;;
48993;SDS011;34804;49.214;12.276;2023-11-19T06:53:08;9.95;;;6.15;;
48993;SDS011;34804;49.214;12.276;2023-11-19T06:55:36;9.45;;;5.70;;
48993;SDS011;34804;49.214;12.276;2023-11-19T06:58:03;10.85;;;5.82;;
48993;SDS011;34804;49.214;12.276;2023-11-19T07:00:31;9.48;;;5.55;;
48993;SDS011;34804;49.214;12.276;2023-11-19T07:02:59;9.88;;;5.78;;
48993;SDS011;34804;49.214;12.276;2023-11-19T07:05:26;10.90;;;6.05;;
48993;SDS011;34804;49.214;12.276;2023-11-19T07:07:54;9.43;;;6.07;;
48993;SDS011;34804;49.214;12.276;2023-11-19T07:10:22;10.40;;;5.95;;
48993;SDS011;34804;49.214;12.276;2023-11-19T07:12:49;10.82;;;5.85;;
48993;SDS011;34804;49.214;12.276;2023-11-19T07:15:16;9.10;;;5.40;;
48993;SDS011;34804;49.214;12.276;2023-11-19T07:17:44;9.38;;;5.28;;
48993;SDS011;34804;49.214;12.276;2023-11-19T07:20:11;10.18;;;5.32;;
48993;SDS011;34804;49.214;12.276;2023-11-19T07:22:43;9.10;;;5.05;;
48993;SDS011;34804;49.214;12.276;2023-11-19T07:25:14;10.13;;;5.82;;
48993;SDS011;34804;49.214;12.276;2023-11-19T07:27:41;9.07;;;4.88;;
48993;SDS011;34804;49.214;12.276;2023-11-19T07:30:09;9.60;;;4.88;;
48993;SDS011;34804;49.214;12.276;2023-11-19T07:32:36;7.80;;;4.50;;
48993;SDS011;34804;49.214;12.276;2023-11-19T07:35:05;7.80;;;4.15;;
48993;SDS011;34804;49.214;12.276;2023-11-19T07:37:33;8.80;;;4.72;;
48993;SDS011;34804;49.214;12.276;2023-11-19T07:40:00;7.00;;;3.95;;
48993;SDS011;34804;49.214;12.276;2023-11-19T07:42:27;5.90;;;3.40;;
48993;SDS011;34804;49.214;12.276;2023-11-19T07:44:53;5.90;;;3.38;;
48993;SDS011;34804;49.214;12.276;2023-11-19T07:47:22;6.30;;;3.28;;
48993;SDS011;34804;49.214;12.276;2023-11-19T07:49:50;5.85;;;3.33;;
48993;SDS011;34804;49.214;12.276;2023-11-19T07:52:17;5.90;;;3.03;;
48993;SDS011;34804;49.214;12.276;2023-11-19T07:54:47;7.90;;;4.25;;
48993;SDS011;34804;49.214;12.276;2023-11-19T07:57:15;7.20;;;3.60;;
48993;SDS011;34804;49.214;12.276;2023-11-19T07:59:42;5.60;;;3.20;;
48993;SDS011;34804;49.214;12.276;2023-11-19T08:02:09;6.28;;;3.20;;
48993;SDS011;34804;49.214;12.276;2023-11-19T08:04:36;6.25;;;3.42;;
48993;SDS011;34804;49.214;12.276;2023-11-19T08:07:06;6.90;;;3.10;;
48993;SDS011;34804;49.214;12.276;2023-11-19T08:09:33;5.13;;;2.85;;
48993;SDS011;34804;49.214;12.276;2023-11-19T08:12:00;4.65;;;2.30;;
48993;SDS011;34804;49.214;12.276;2023-11-19T08:14:27;5.15;;;2.72;;
48993;SDS011;34804;49.214;12.276;2023-11-19T08:16:54;5.53;;;3.08;;
48993;SDS011;34804;49.214;12.276;2023-11-19T08:19:21;4.88;;;2.60;;
48993;SDS011;34804;49.214;12.276;2023-11-19T08:21:48;4.38;;;2.30;;
48993;SDS011;34804;49.214;12.276;2023-11-19T08:24:14;5.97;;;2.85;;
48993;SDS011;34804;49.214;12.276;2023-11-19T08:26:41;4.72;;;2.53;;
48993;SDS011;34804;49.214;12.276;2023-11-19T08:29:08;6.47;;;2.47;;
48993;SDS011;34804;49.214;12.276;2023-11-19T08:31:35;6.07;;;2.40;;
48993;SDS011;34804;49.214;12.276;2023-11-19T08:34:02;4.38;;;2.15;;
48993;SDS011;34804;49.214;12.276;2023-11-19T08:36:29;3.70;;;1.88;;
48993;SDS011;34804;49.214;12.276;2023-11-19T08:38:58;4.80;;;2.33;;
48993;SDS011;34804;49.214;12.276;2023-11-19T08:41:24;4.10;;;2.05;;
48993;SDS011;34804;49.214;12.276;2023-11-19T08:43:52;3.95;;;2.10;;
48993;SDS011;34804;49.214;12.276;2023-11-19T08:46:19;5.03;;;2.25;;
48993;SDS011;34804;49.214;12.276;2023-11-19T08:48:46;4.35;;;2.33;;
48993;SDS011;34804;49.214;12.276;2023-11-19T08:51:13;4.70;;;2.40;;
48993;SDS011;34804;49.214;12.276;2023-11-19T08:53:40;4.43;;;2.40;;
48993;SDS011;34804;49.214;12.276;2023-11-19T08:56:07;5.20;;;2.60;;
48993;SDS011;34804;49.214;12.276;2023-11-19T08:58:34;4.97;;;2.50;;
48993;SDS011;34804;49.214;12.276;2023-11-19T09:01:01;6.10;;;2.83;;
48993;SDS011;34804;49.214;12.276;2023-11-19T09:03:28;5.32;;;2.45;;
48993;SDS011;34804;49.214;12.276;2023-11-19T09:05:58;5.45;;;2.90;;
48993;SDS011;34804;49.214;12.276;2023-11-19T09:08:26;6.10;;;3.20;;
48993;SDS011;34804;49.214;12.276;2023-11-19T09:10:53;5.95;;;3.28;;
48993;SDS011;34804;49.214;12.276;2023-11-19T09:13:20;5.95;;;3.55;;
48993;SDS011;34804;49.214;12.276;2023-11-19T09:15:47;6.20;;;3.80;;
48993;SDS011;34804;49.214;12.276;2023-11-19T09:18:14;6.80;;;3.65;;
48993;SDS011;34804;49.214;12.276;2023-11-19T09:20:41;7.97;;;3.85;;
48993;SDS011;34804;49.214;12.276;2023-11-19T09:23:08;5.70;;;3.00;;
48993;SDS011;34804;49.214;12.276;2023-11-19T09:25:35;5.95;;;2.78;;
48993;SDS011;34804;49.214;12.276;2023-11-19T09:28:05;5.15;;;3.22;;
48993;SDS011;34804;49.214;12.276;2023-11-19T09:30:32;5.43;;;2.92;;
48993;SDS011;34804;49.214;12.276;2023-11-19T09:33:00;6.53;;;3.40;;
48993;SDS011;34804;49.214;12.276;2023-11-19T09:35:27;3.58;;;1.92;;
48993;SDS011;34804;49.214;12.276;2023-11-19T09:37:54;4.07;;;2.00;;
48993;SDS011;34804;49.214;12.276;2023-11-19T09:40:21;4.10;;;2.17;;
48993;SDS011;34804;49.214;12.276;2023-11-19T09:42:48;4.90;;;2.20;;
48993;SDS011;34804;49.214;12.276;2023-11-19T09:45:15;4.80;;;2.50;;
48993;SDS011;34804;49.214;12.276;2023-11-19T09:47:44;5.18;;;2.60;;
48993;SDS011;34804;49.214;12.276;2023-11-19T09:50:18;6.00;;;3.15;;
48993;SDS011;34804;49.214;12.276;2023-11-19T09:52:46;4.78;;;2.65;;
48993;SDS011;34804;49.214;12.276;2023-11-19T09:55:14;6.00;;;3.00;;
48993;SDS011;34804;49.214;12.276;2023-11-19T09:57:41;5.68;;;3.20;;
48993;SDS011;34804;49.214;12.276;2023-11-19T10:00:10;5.63;;;3.05;;
48993;SDS011;34804;49.214;12.276;2023-11-19T10:02:39;5.40;;;2.75;;
48993;SDS011;34804;49.214;12.276;2023-11-19T10:05:08;5.60;;;3.67;;
48993;SDS011;34804;49.214;12.276;2023-11-19T10:07:36;6.03;;;3.50;;
48993;SDS011;34804;49.214;12.276;2023-11-19T10:10:04;6.55;;;4.00;;
48993;SDS011;34804;49.214;12.276;2023-11-19T10:12:31;6.10;;;3.63;;
48993;SDS011;34804;49.214;12.276;2023-11-19T10:15:00;6.75;;;4.07;;
48993;SDS011;34804;49.214;12.276;2023-11-19T10:17:28;7.28;;;3.38;;
48993;SDS011;34804;49.214;12.276;2023-11-19T10:19:59;6.40;;;3.80;;
48993;SDS011;34804;49.214;12.276;2023-11-19T10:22:27;5.88;;;3.75;;
48993;SDS011;34804;49.214;12.276;2023-11-19T10:24:54;6.57;;;3.90;;
48993;SDS011;34804;49.214;12.276;2023-11-19T10:27:23;7.35;;;3.65;;
48993;SDS011;34804;49.214;12.276;2023-11-19T10:29:52;5.32;;;3.15;;
48993;SDS011;34804;49.214;12.276;2023-11-19T10:32:19;6.30;;;3.60;;
48993;SDS011;34804;49.214;12.276;2023-11-19T10:37:31;4.93;;;2.53;;
48993;SDS011;34804;49.214;12.276;2023-11-19T10:39:59;5.78;;;2.63;;
48993;SDS011;34804;49.214;12.276;2023-11-19T10:42:26;4.40;;;2.33;;
48993;SDS011;34804;49.214;12.276;2023-11-19T10:44:53;5.25;;;2.50;;
48993;SDS011;34804;49.214;12.276;2023-11-19T10:47:20;5.07;;;2.38;;
48993;SDS011;34804;49.214;12.276;2023-11-19T10:49:52;5.68;;;2.50;;
48993;SDS011;34804;49.214;12.276;2023-11-19T10:52:19;3.58;;;1.90;;
48993;SDS011;34804;49.214;12.276;2023-11-19T10:54:50;4.90;;;2.10;;
48993;SDS011;34804;49.214;12.276;2023-11-19T10:57:20;5.35;;;2.42;;
48993;SDS011;34804;49.214;12.276;2023-11-19T10:59:55;7.10;;;2.38;;
48993;SDS011;34804;49.214;12.276;2023-11-19T11:02:28;4.13;;;2.42;;
48993;SDS011;34804;49.214;12.276;2023-11-19T11:05:01;4.65;;;2.50;;
48993;SDS011;34804;49.214;12.276;2023-11-19T11:07:29;5.47;;;2.70;;
48993;SDS011;34804;49.214;12.276;2023-11-19T11:10:06;7.63;;;2.92;;
48993;SDS011;34804;49.214;12.276;2023-11-19T11:12:36;4.93;;;2.78;;
48993;SDS011;34804;49.214;12.276;2023-11-19T11:15:04;4.13;;;2.30;;
48993;SDS011;34804;49.214;12.276;2023-11-19T11:17:33;5.93;;;3.08;;
48993;SDS011;34804;49.214;12.276;2023-11-19T11:20:01;5.75;;;2.83;;
48993;SDS011;34804;49.214;12.276;2023-11-19T11:22:30;6.05;;;3.05;;
48993;SDS011;34804;49.214;12.276;2023-11-19T11:25:11;5.30;;;3.13;;
48993;SDS011;34804;49.214;12.276;2023-11-19T11:28:02;5.25;;;2.90;;
48993;SDS011;34804;49.214;12.276;2023-11-19T11:30:49;5.93;;;2.90;;
48993;SDS011;34804;49.214;12.276;2023-11-19T11:33:32;6.57;;;2.50;;
48993;SDS011;34804;49.214;12.276;2023-11-19T11:36:23;4.40;;;2.30;;
48993;SDS011;34804;49.214;12.276;2023-11-19T11:38:51;5.32;;;2.30;;
48993;SDS011;34804;49.214;12.276;2023-11-19T11:41:22;4.15;;;2.30;;
48993;SDS011;34804;49.214;12.276;2023-11-19T11:43:55;4.68;;;1.77;;
48993;SDS011;34804;49.214;12.276;2023-11-19T11:49:06;3.20;;;1.67;;
48993;SDS011;34804;49.214;12.276;2023-11-19T11:54:31;2.05;;;0.80;;
48993;SDS011;34804;49.214;12.276;2023-11-19T12:02:07;2.40;;;0.93;;
48993;SDS011;34804;49.214;12.276;2023-11-19T12:04:35;1.67;;;0.70;;
48993;SDS011;34804;49.214;12.276;2023-11-19T12:07:03;2.55;;;0.80;;
48993;SDS011;34804;49.214;12.276;2023-11-19T12:09:32;2.65;;;0.90;;
48993;SDS011;34804;49.214;12.276;2023-11-19T12:12:18;2.53;;;0.80;;
48993;SDS011;34804;49.214;12.276;2023-11-19T12:19:59;2.90;;;1.10;;
48993;SDS011;34804;49.214;12.276;2023-11-19T12:22:28;3.13;;;1.25;;
48993;SDS011;34804;49.214;12.276;2023-11-19T12:24:54;2.40;;;1.00;;
48993;SDS011;34804;49.214;12.276;2023-11-19T12:27:22;2.53;;;1.30;;
48993;SDS011;34804;49.214;12.276;2023-11-19T12:29:49;3.78;;;1.38;;
48993;SDS011;34804;49.214;12.276;2023-11-19T12:32:17;3.72;;;1.70;;
48993;SDS011;34804;49.214;12.276;2023-11-19T12:34:44;3.67;;;1.85;;
48993;SDS011;34804;49.214;12.276;2023-11-19T12:37:11;3.15;;;1.50;;
48993;SDS011;34804;49.214;12.276;2023-11-19T12:39:38;2.70;;;1.38;;
48993;SDS011;34804;49.214;12.276;2023-11-19T12:42:06;2.75;;;1.25;;
48993;SDS011;34804;49.214;12.276;2023-11-19T12:44:33;3.00;;;1.20;;
48993;SDS011;34804;49.214;12.276;2023-11-19T12:47:04;2.28;;;0.90;;
48993;SDS011;34804;49.214;12.276;2023-11-19T12:49:33;1.35;;;0.85;;
48993;SDS011;34804;49.214;12.276;2023-11-19T12:52:00;2.10;;;0.80;;
48993;SDS011;34804;49.214;12.276;2023-11-19T12:54:34;2.55;;;0.73;;
48993;SDS011;34804;49.214;12.276;2023-11-19T12:57:02;4.57;;;0.85;;
48993;SDS011;34804;49.214;12.276;2023-11-19T12:59:31;2.22;;;0.70;;
48993;SDS011;34804;49.214;12.276;2023-11-19T13:01:58;3.42;;;0.77;;
48993;SDS011;34804;49.214;12.276;2023-11-19T13:04:29;1.95;;;0.80;;
48993;SDS011;34804;49.214;12.276;2023-11-19T13:06:59;3.42;;;1.05;;
48993;SDS011;34804;49.214;12.276;2023-11-19T13:09:29;2.63;;;1.02;;
48993;SDS011;34804;49.214;12.276;2023-11-19T13:11:57;4.60;;;1.15;;
48993;SDS011;34804;49.214;12.276;2023-11-19T13:14:35;4.40;;;1.13;;
48993;SDS011;34804;49.214;12.276;2023-11-19T13:17:04;4.72;;;1.13;;
48993;SDS011;34804;49.214;12.276;2023-11-19T13:19:32;2.30;;;0.90;;
48993;SDS011;34804;49.214;12.276;2023-11-19T13:21:58;2.63;;;0.98;;
48993;SDS011;34804;49.214;12.276;2023-11-19T13:24:25;2.60;;;0.98;;
48993;SDS011;34804;49.214;12.276;2023-11-19T13:26:52;3.35;;;0.73;;
48993;SDS011;34804;49.214;12.276;2023-11-19T13:29:19;4.60;;;0.95;;
48993;SDS011;34804;49.214;12.276;2023-11-19T13:31:46;3.83;;;0.95;;
48993;SDS011;34804;49.214;12.276;2023-11-19T13:34:13;2.42;;;0.77;;
48993;SDS011;34804;49.214;12.276;2023-11-19T13:36:40;4.53;;;1.10;;
48993;SDS011;34804;49.214;12.276;2023-11-19T13:39:08;2.35;;;0.70;;
48993;SDS011;34804;49.214;12.276;2023-11-19T13:41:35;2.20;;;0.77;;
48993;SDS011;34804;49.214;12.276;2023-11-19T13:44:01;4.05;;;1.17;;
48993;SDS011;34804;49.214;12.276;2023-11-19T13:46:28;3.47;;;0.88;;
48993;SDS011;34804;49.214;12.276;2023-11-19T13:48:56;2.80;;;0.68;;
48993;SDS011;34804;49.214;12.276;2023-11-19T13:51:23;3.08;;;1.10;;
48993;SDS011;34804;49.214;12.276;2023-11-19T13:53:50;2.45;;;1.10;;
48993;SDS011;34804;49.214;12.276;2023-11-19T13:56:19;5.35;;;1.25;;
48993;SDS011;34804;49.214;12.276;2023-11-19T13:58:46;3.63;;;1.00;;
48993;SDS011;34804;49.214;12.276;2023-11-19T14:01:13;2.28;;;0.88;;
48993;SDS011;34804;49.214;12.276;2023-11-19T14:03:41;3.40;;;1.00;;
48993;SDS011;34804;49.214;12.276;2023-11-19T14:06:08;2.70;;;1.00;;
48993;SDS011;34804;49.214;12.276;2023-11-19T14:08:36;4.03;;;0.95;;
48993;SDS011;34804;49.214;12.276;2023-11-19T14:11:02;3.78;;;0.90;;
48993;SDS011;34804;49.214;12.276;2023-11-19T14:13:29;2.10;;;0.80;;
48993;SDS011;34804;49.214;12.276;2023-11-19T14:15:56;3.53;;;0.80;;
48993;SDS011;34804;49.214;12.276;2023-11-19T14:18:23;3.50;;;1.00;;
48993;SDS011;34804;49.214;12.276;2023-11-19T14:20:50;3.03;;;0.82;;
48993;SDS011;34804;49.214;12.276;2023-11-19T14:23:18;1.60;;;0.68;;
48993;SDS011;34804;49.214;12.276;2023-11-19T14:25:45;2.55;;;1.00;;
48993;SDS011;34804;49.214;12.276;2023-11-19T14:28:12;1.40;;;0.65;;
48993;SDS011;34804;49.214;12.276;2023-11-19T14:30:41;4.32;;;0.90;;
48993;SDS011;34804;49.214;12.276;2023-11-19T14:33:08;2.97;;;0.90;;
48993;SDS011;34804;49.214;12.276;2023-11-19T14:35:35;3.03;;;0.77;;
48993;SDS011;34804;49.214;12.276;2023-11-19T14:38:02;2.55;;;0.80;;
48993;SDS011;34804;49.214;12.276;2023-11-19T14:40:31;8.05;;;1.10;;
48993;SDS011;34804;49.214;12.276;2023-11-19T14:43:01;2.58;;;0.80;;
48993;SDS011;34804;49.214;12.276;2023-11-19T14:45:28;2.70;;;0.90;;
48993;SDS011;34804;49.214;12.276;2023-11-19T14:48:04;2.63;;;0.98;;
48993;SDS011;34804;49.214;12.276;2023-11-19T14:50:32;5.28;;;0.80;;
48993;SDS011;34804;49.214;12.276;2023-11-19T14:52:59;2.28;;;0.80;;
48993;SDS011;34804;49.214;12.276;2023-11-19T14:55:26;3.80;;;0.85;;
48993;SDS011;34804;49.214;12.276;2023-11-19T14:57:53;2.25;;;0.82;;